createdAt,value
2019-04-05T00:04:36.244Z,74.31
2019-04-05T00:07:25.039Z,74.27
2019-04-05T00:10:14.214Z,74.42
2019-04-05T00:13:03.090Z,74.16
2019-04-05T00:15:45.067Z,73.60
2019-04-05T00:18:33.867Z,73.69
2019-04-05T00:21:22.649Z,73.91
2019-04-05T00:24:11.441Z,74.02
2019-04-05T00:27:00.242Z,74.45
2019-04-05T00:29:49.024Z,74.11
2019-04-05T00:32:37.829Z,74.66
2019-04-05T00:35:26.620Z,74.29
2019-04-05T00:38:15.397Z,73.94
2019-04-05T00:41:23.213Z,74.95
2019-04-05T00:44:11.990Z,75.29
2019-04-05T00:47:00.794Z,75.26
2019-04-05T00:49:49.589Z,75.00
2019-04-05T00:52:38.452Z,76.02
2019-04-05T00:55:27.250Z,76.97
2019-04-05T00:58:16.113Z,77.10
2019-04-05T01:04:19.895Z,76.82
2019-04-05T01:07:08.674Z,77.21
2019-04-05T01:09:57.553Z,77.28
2019-04-05T01:13:06.193Z,77.01
2019-04-05T01:15:54.979Z,77.00
2019-04-05T01:18:37.114Z,77.01
2019-04-05T01:21:25.980Z,76.84
2019-04-05T01:24:35.649Z,76.83
2019-04-05T01:27:48.332Z,76.77
2019-04-05T01:30:36.287Z,76.33
2019-04-05T01:33:25.096Z,76.91
2019-04-05T01:36:13.865Z,76.97
2019-04-05T01:38:43.323Z,76.70
2019-04-05T01:41:32.103Z,76.36
2019-04-05T01:44:20.896Z,76.16
2019-04-05T01:47:09.687Z,76.91
2019-04-05T01:49:58.479Z,77.92
2019-04-05T01:52:47.425Z,78.88
2019-04-05T01:55:55.318Z,78.68
2019-04-05T01:58:44.093Z,78.76
2019-04-05T02:01:32.973Z,79.28
2019-04-05T02:04:21.756Z,78.40
2019-04-05T02:07:10.633Z,80.17
2019-04-05T02:09:59.408Z,79.04
2019-04-05T02:12:48.270Z,79.84
2019-04-05T02:16:06.146Z,79.89
2019-04-05T02:18:40.299Z,78.82
2019-04-05T02:21:29.099Z,79.23
2019-04-05T02:24:17.945Z,78.62
2019-04-05T02:27:06.806Z,78.31
2019-04-05T02:29:55.591Z,77.29
2019-04-05T02:32:44.451Z,77.27
2019-04-05T02:35:33.230Z,77.79
2019-04-05T02:38:22.093Z,76.91
2019-04-05T02:41:10.930Z,76.92
2019-04-05T02:44:20.652Z,76.17
2019-04-05T02:47:30.359Z,76.72
2019-04-05T02:50:40.040Z,76.60
2019-04-05T02:53:29.120Z,76.83
2019-04-05T02:56:18.373Z,76.78
2019-04-05T02:59:07.742Z,76.29
2019-04-05T03:08:19.432Z,76.43
2019-04-05T03:11:29.139Z,76.69
2019-04-05T03:14:38.825Z,76.41
2019-04-05T03:17:20.662Z,76.53
2019-04-05T03:20:09.445Z,76.48
2019-04-05T03:22:58.304Z,76.10
2019-04-05T03:26:07.283Z,75.91
2019-04-05T03:29:16.972Z,75.88
2019-04-05T03:32:06.199Z,75.78
2019-04-05T03:35:15.939Z,75.53
2019-04-05T03:38:04.781Z,75.23
2019-04-05T03:40:53.573Z,75.30
2019-04-05T03:43:42.370Z,75.31
2019-04-05T03:49:46.232Z,74.77
2019-04-05T03:52:35.036Z,76.21
2019-04-05T03:55:43.008Z,76.26
2019-04-05T03:58:31.924Z,78.06
2019-04-05T04:01:20.738Z,77.43
2019-04-05T04:04:09.525Z,77.82
2019-04-05T04:06:58.329Z,77.16
2019-04-05T04:09:47.112Z,76.27
2019-04-05T04:12:36.173Z,76.66
2019-04-05T04:15:25.819Z,76.60
2019-04-05T04:18:07.099Z,76.70
2019-04-05T04:21:16.772Z,76.33
2019-04-05T04:24:05.639Z,76.43
2019-04-05T04:26:54.418Z,76.33
2019-04-05T04:30:02.248Z,76.14
2019-04-05T04:32:51.017Z,75.86
2019-04-05T04:38:55.238Z,75.63
2019-04-05T04:41:44.693Z,75.67
2019-04-05T04:44:33.487Z,75.74
2019-04-05T04:47:41.311Z,75.42
2019-04-05T04:50:30.448Z,77.62
2019-04-05T04:56:27.217Z,77.66
2019-04-05T04:59:16.006Z,77.43
2019-04-05T05:02:04.872Z,76.79
2019-04-05T05:04:53.663Z,76.36
2019-04-05T05:07:42.525Z,76.14
2019-04-05T05:10:31.386Z,76.20
2019-04-05T05:13:20.259Z,76.02
2019-04-05T05:16:02.581Z,75.54
2019-04-05T05:19:10.448Z,75.31
2019-04-05T05:24:53.904Z,74.79
2019-04-05T05:27:42.891Z,75.21
2019-04-05T05:30:31.663Z,75.36
2019-04-05T05:33:20.457Z,75.45
2019-04-05T05:42:19.311Z,76.35
2019-04-05T05:45:29.017Z,76.13
2019-04-05T05:48:17.968Z,76.01
2019-04-05T05:51:06.758Z,75.80
2019-04-05T05:53:55.528Z,76.21
2019-04-05T05:56:44.330Z,75.66
2019-04-05T05:59:32.788Z,76.52
2019-04-05T06:02:21.253Z,78.60
2019-04-05T06:08:25.429Z,78.18
2019-04-05T06:11:14.311Z,78.04
2019-04-05T06:14:03.174Z,77.69
2019-04-05T06:19:35.589Z,78.52
2019-04-05T06:22:24.403Z,78.04
2019-04-05T06:25:13.173Z,77.42
2019-04-05T06:30:56.121Z,76.39
2019-04-05T06:33:44.921Z,75.45
2019-04-05T06:35:39.482Z,78.12
2019-04-05T06:36:33.699Z,74.24
2019-04-05T06:39:22.579Z,73.94
2019-04-05T06:42:11.387Z,74.10
2019-04-05T06:45:00.171Z,72.99
2019-04-05T06:47:48.985Z,72.89
2019-04-05T06:50:37.773Z,72.92
2019-04-05T06:53:26.574Z,72.58
2019-04-05T06:56:15.367Z,72.72
2019-04-05T06:59:04.626Z,73.07
2019-04-05T07:01:53.597Z,73.11
2019-04-05T07:04:42.356Z,72.90
2019-04-05T07:10:25.351Z,73.17
2019-04-05T07:13:14.165Z,73.11
2019-04-05T07:15:56.041Z,74.06
2019-04-05T07:18:45.003Z,74.45
2019-04-05T07:21:17.115Z,74.09
2019-04-05T07:24:04.967Z,73.88
2019-04-05T07:26:53.749Z,74.53
2019-04-05T07:29:42.549Z,74.41
2019-04-05T07:32:31.564Z,74.12
2019-04-05T07:35:32.477Z,74.17
2019-04-05T07:38:10.837Z,74.36
2019-04-05T07:40:59.612Z,74.20
2019-04-05T07:43:48.418Z,74.45
2019-04-05T07:46:37.198Z,74.80
2019-04-05T07:49:25.988Z,77.30
2019-04-05T07:52:14.769Z,76.39
2019-04-05T07:58:18.626Z,77.33
2019-04-05T08:01:07.503Z,77.00
2019-04-05T08:03:58.110Z,77.76
2019-04-05T08:07:07.702Z,77.86
2019-04-05T08:09:56.619Z,77.84
2019-04-05T08:12:45.594Z,77.26
2019-04-05T08:18:35.281Z,76.87
2019-04-05T08:21:24.063Z,76.00
2019-04-05T08:24:12.852Z,75.38
2019-04-05T08:27:01.641Z,74.89
2019-04-05T08:29:50.452Z,74.46
2019-04-05T08:32:39.242Z,74.35
2019-04-05T08:35:28.054Z,74.31
2019-04-05T08:38:16.894Z,74.53
2019-04-05T08:41:05.767Z,74.33
2019-04-05T08:43:54.551Z,73.58
2019-04-05T08:46:43.355Z,73.31
2019-04-05T08:49:32.132Z,73.39
2019-04-05T08:52:20.934Z,72.88
2019-04-05T08:55:09.841Z,72.32
2019-04-05T08:57:58.625Z,72.39
2019-04-05T09:00:47.430Z,73.04
2019-04-05T09:03:36.223Z,72.33
2019-04-05T09:06:25.000Z,72.79
2019-04-05T09:09:13.811Z,71.97
2019-04-05T09:12:02.592Z,72.76
2019-04-05T09:14:51.415Z,72.91
2019-04-05T09:17:33.101Z,72.78
2019-04-05T09:20:21.896Z,72.16
2019-04-05T09:23:10.691Z,71.56
2019-04-05T09:25:59.472Z,71.11
2019-04-05T09:28:48.272Z,72.22
2019-04-05T09:31:37.074Z,71.09
2019-04-05T09:34:44.951Z,70.45
2019-04-05T09:37:33.759Z,70.53
2019-04-05T09:40:22.546Z,69.67
2019-04-05T09:43:11.336Z,69.55
2019-04-05T09:46:00.134Z,70.02
2019-04-05T09:48:48.947Z,70.96
2019-04-05T09:51:37.797Z,70.62
2019-04-05T09:54:26.674Z,69.99
2019-04-05T09:57:15.465Z,69.74
2019-04-05T10:00:26.737Z,69.80
2019-04-05T10:03:15.531Z,69.60
2019-04-05T10:06:04.392Z,69.47
2019-04-05T10:08:53.191Z,69.43
2019-04-05T10:11:41.995Z,70.53
2019-04-05T10:14:30.785Z,70.80
2019-04-05T10:17:12.863Z,70.78
2019-04-05T10:20:01.647Z,70.40
2019-04-05T10:22:50.463Z,70.52
2019-04-05T10:25:39.243Z,71.06
2019-04-05T10:28:28.032Z,70.22
2019-04-05T10:31:16.807Z,70.87
2019-04-05T10:34:05.610Z,70.44
2019-04-05T10:36:54.393Z,69.90
2019-04-05T10:39:43.202Z,69.92
2019-04-05T10:46:01.178Z,70.74
2019-04-05T10:48:49.972Z,71.00
2019-04-05T10:51:38.777Z,70.91
2019-04-05T10:54:27.586Z,70.97
2019-04-05T10:57:16.368Z,70.28
2019-04-05T11:00:26.071Z,70.20
2019-04-05T11:03:14.855Z,69.75
2019-04-05T11:06:03.648Z,69.22
2019-04-05T11:08:52.464Z,69.72
2019-04-05T11:11:41.241Z,69.75
2019-04-05T11:14:30.041Z,69.33
2019-04-05T11:17:11.491Z,69.27
2019-04-05T11:20:00.292Z,69.17
2019-04-05T11:22:50.085Z,69.15
2019-04-05T11:25:39.583Z,69.38
2019-04-05T11:28:28.383Z,69.60
2019-04-05T11:31:17.174Z,70.14
2019-04-05T11:34:05.976Z,70.26
2019-04-05T11:36:55.242Z,70.10
2019-04-05T11:40:04.954Z,69.85
2019-04-05T11:42:53.786Z,70.48
2019-04-05T11:45:42.574Z,69.92
2019-04-05T11:48:52.284Z,69.87
2019-04-05T11:51:43.159Z,69.83
2019-04-05T11:54:31.582Z,69.65
2019-04-05T11:57:20.387Z,69.73
2019-04-05T12:00:47.536Z,69.57
2019-04-05T12:03:36.392Z,69.48
2019-04-05T12:06:25.199Z,70.05
2019-04-05T12:09:13.988Z,69.44
2019-04-05T12:12:03.196Z,70.13
2019-04-05T12:14:51.938Z,69.96
2019-04-05T12:17:35.107Z,69.40
2019-04-05T12:20:23.775Z,69.50
2019-04-05T12:23:12.563Z,69.85
2019-04-05T12:26:04.189Z,69.97
2019-04-05T12:28:52.119Z,70.05
2019-04-05T12:31:40.927Z,70.36
2019-04-05T12:34:29.706Z,70.29
2019-04-05T12:37:21.853Z,69.98
2019-04-05T12:43:37.639Z,69.88
2019-04-05T12:46:26.444Z,70.42
2019-04-05T12:49:15.405Z,69.97
2019-04-05T12:52:05.777Z,71.20
2019-04-05T12:54:54.990Z,71.91
2019-04-05T12:57:48.325Z,71.05
2019-04-05T13:00:38.801Z,71.30
2019-04-05T13:03:26.861Z,71.37
2019-04-05T13:06:15.699Z,71.42
2019-04-05T13:09:26.187Z,71.06
2019-04-05T13:12:15.034Z,70.06
2019-04-05T13:18:11.921Z,70.12
2019-04-05T13:21:01.152Z,70.17
2019-04-05T13:23:51.220Z,70.02
2019-04-05T13:26:42.161Z,70.16
2019-04-05T13:29:30.558Z,70.67
2019-04-05T13:32:21.610Z,71.10
2019-04-05T13:35:10.033Z,71.32
2019-04-05T13:38:00.686Z,71.38
2019-04-05T13:40:49.335Z,70.62
2019-04-05T13:43:38.126Z,70.40
2019-04-05T13:46:26.933Z,71.13
2019-04-05T13:49:15.701Z,70.47
2019-04-05T13:52:06.665Z,70.63
2019-04-05T13:54:55.066Z,70.62
2019-04-05T13:57:43.889Z,70.22
2019-04-05T14:00:32.739Z,69.96
2019-04-05T14:03:21.537Z,69.62
2019-04-05T14:06:10.791Z,72.27
2019-04-05T14:08:59.627Z,71.82
2019-04-05T14:11:48.424Z,71.66
2019-04-05T14:14:37.291Z,71.38
2019-04-05T14:17:26.086Z,72.29
2019-04-05T14:20:18.564Z,71.54
2019-04-05T14:23:05.590Z,71.89
2019-04-05T14:25:54.448Z,71.43
2019-04-05T14:28:43.251Z,71.59
2019-04-05T14:31:32.243Z,70.93
2019-04-05T14:34:23.708Z,70.77
2019-04-05T14:37:13.063Z,71.39
2019-04-05T14:40:01.925Z,71.58
2019-04-05T14:42:50.719Z,71.76
2019-04-05T14:45:39.515Z,71.73
2019-04-05T14:48:31.782Z,71.33
2019-04-05T14:51:18.820Z,71.53
2019-04-05T14:54:09.880Z,71.76
2019-04-05T14:57:02.380Z,71.97
2019-04-05T14:59:48.643Z,73.08
2019-04-05T15:02:37.497Z,73.72
2019-04-05T15:05:26.303Z,73.93
2019-04-05T15:08:08.045Z,73.79
2019-04-05T15:10:57.325Z,73.68
2019-04-05T15:13:47.388Z,74.28
2019-04-05T15:16:36.216Z,74.37
2019-04-05T15:19:25.033Z,74.45
2019-04-05T15:22:13.798Z,74.37
2019-04-05T15:25:03.475Z,74.08
2019-04-05T15:27:55.539Z,73.89
2019-04-05T15:34:12.221Z,74.35
2019-04-05T15:37:01.581Z,74.44
2019-04-05T15:39:51.541Z,74.26
2019-04-05T15:42:40.354Z,73.94
2019-04-05T15:45:29.155Z,74.07
2019-04-05T15:48:17.956Z,74.50
2019-04-05T15:51:06.750Z,74.93
2019-04-05T15:53:55.547Z,75.34
2019-04-05T15:56:44.334Z,75.50
2019-04-05T15:59:33.885Z,75.59
2019-04-05T16:02:16.031Z,75.48
2019-04-05T16:05:25.737Z,75.54
2019-04-05T16:11:34.367Z,75.10
2019-04-05T16:14:23.157Z,74.85
2019-04-05T16:17:12.634Z,74.42
2019-04-05T16:20:02.900Z,74.62
2019-04-05T16:22:53.320Z,74.54
2019-04-05T16:25:42.104Z,74.32
2019-04-05T16:28:30.905Z,74.57
2019-04-05T16:31:19.680Z,75.47
2019-04-05T16:34:08.472Z,75.97
2019-04-05T16:36:57.266Z,76.07
2019-04-05T16:39:46.059Z,75.88
2019-04-05T16:42:34.842Z,76.13
2019-04-05T16:45:23.712Z,75.78
2019-04-05T16:48:12.662Z,75.90
2019-04-05T16:51:01.425Z,75.53
2019-04-05T16:54:09.236Z,75.25
2019-04-05T16:56:58.036Z,76.31
2019-04-05T16:59:46.813Z,76.63
2019-04-05T17:02:28.317Z,77.38
2019-04-05T17:05:17.105Z,78.74
2019-04-05T17:08:05.895Z,79.11
2019-04-05T17:10:54.696Z,78.28
2019-04-05T17:13:43.510Z,78.61
2019-04-05T17:16:32.981Z,79.22
2019-04-05T17:19:21.778Z,78.42
2019-04-05T17:22:10.580Z,78.87
2019-04-05T17:24:59.374Z,78.85
2019-04-05T17:27:48.157Z,78.79
2019-04-05T17:30:36.954Z,79.96
2019-04-05T17:33:25.741Z,80.19
2019-04-05T17:36:14.533Z,80.16
2019-04-05T17:42:12.722Z,80.26
2019-04-05T17:45:01.503Z,80.13
2019-04-05T17:47:50.315Z,80.10
2019-04-05T17:53:33.196Z,81.02
2019-04-05T17:56:22.056Z,81.45
2019-04-05T17:59:10.908Z,81.10
2019-04-05T18:04:47.341Z,81.00
2019-04-05T18:07:36.150Z,80.97
2019-04-05T18:10:25.007Z,80.57
2019-04-05T18:13:13.819Z,81.07
2019-04-05T18:19:10.410Z,81.09
2019-04-05T18:25:27.597Z,81.66
2019-04-05T18:28:16.388Z,81.52
2019-04-05T18:31:05.187Z,80.85
2019-04-05T18:33:53.972Z,81.41
2019-04-05T18:36:42.765Z,81.45
2019-04-05T18:39:31.540Z,81.34
2019-04-05T18:42:20.333Z,80.85
2019-04-05T18:45:09.430Z,80.82
2019-04-05T18:47:58.247Z,81.24
2019-04-05T18:50:48.476Z,80.85
2019-04-05T18:53:38.284Z,82.57
2019-04-05T18:56:28.126Z,81.17
2019-04-05T18:59:16.927Z,80.59
2019-04-05T19:02:05.803Z,79.87
2019-04-05T19:04:47.515Z,79.60
2019-04-05T19:07:36.294Z,79.17
2019-04-05T19:10:36.541Z,79.47
2019-04-05T19:13:15.624Z,79.20
2019-04-05T19:16:04.428Z,79.29
2019-04-05T19:18:53.205Z,79.70
2019-04-05T19:21:41.997Z,79.78
2019-04-05T19:24:30.808Z,80.81
2019-04-05T19:27:19.595Z,81.33
2019-04-05T19:48:36.043Z,79.67
2019-04-05T19:51:26.285Z,79.16
2019-04-05T19:54:15.131Z,79.13
2019-04-05T19:57:04.010Z,78.78
2019-04-05T19:59:52.893Z,78.34
2019-04-05T20:02:41.786Z,78.17
2019-04-05T20:05:23.219Z,78.51
2019-04-05T20:08:31.089Z,79.04
2019-04-05T20:11:19.941Z,78.81
2019-04-05T20:14:08.776Z,78.62
2019-04-05T20:16:57.583Z,79.01
2019-04-05T20:19:46.413Z,80.06
2019-04-05T20:25:42.994Z,79.00
2019-04-05T20:28:31.862Z,79.73
2019-04-05T20:31:20.730Z,80.80
2019-04-05T20:34:09.573Z,81.43
2019-04-05T20:36:58.379Z,81.51
2019-04-05T20:39:47.228Z,80.98
2019-04-05T20:42:36.080Z,81.64
2019-04-05T20:45:24.960Z,81.29
2019-04-05T20:48:13.808Z,80.59
2019-04-05T20:51:02.616Z,81.01
2019-04-05T20:53:51.447Z,82.90
2019-04-05T20:56:21.029Z,81.55
2019-04-05T20:59:02.317Z,81.07
2019-04-05T21:01:51.138Z,80.54
2019-04-05T21:04:33.275Z,80.42
2019-04-05T21:07:22.113Z,79.65
2019-04-05T21:10:10.958Z,79.23
2019-04-05T21:12:59.748Z,78.95
2019-04-05T21:15:48.605Z,78.95
2019-04-05T21:18:37.446Z,78.85
2019-04-05T21:21:26.318Z,79.25
2019-04-05T21:24:15.184Z,78.79
2019-04-05T21:27:04.055Z,78.86
2019-04-05T21:33:00.666Z,79.90
2019-04-05T21:35:49.554Z,80.04
2019-04-05T21:38:38.407Z,80.50
2019-04-05T21:41:27.219Z,80.86
2019-04-05T21:43:56.725Z,79.89
2019-04-05T21:46:45.541Z,79.43
2019-04-05T21:49:34.429Z,79.27
2019-04-05T21:55:30.977Z,79.53
2019-04-05T21:58:19.761Z,79.59
2019-04-05T22:04:04.831Z,80.86
2019-04-05T22:06:46.693Z,80.52
2019-04-05T22:09:35.507Z,80.34
2019-04-05T22:12:24.368Z,79.74
2019-04-05T22:15:13.298Z,79.75
2019-04-05T22:18:02.080Z,79.43
2019-04-05T22:20:50.873Z,79.96
2019-04-05T22:23:39.742Z,79.94
2019-04-05T22:26:28.542Z,80.52
2019-04-05T22:29:17.319Z,80.02
2019-04-05T22:32:06.126Z,80.62
2019-04-05T22:34:54.911Z,81.17
2019-04-05T22:37:43.714Z,81.90
2019-04-05T22:40:32.681Z,81.32
2019-04-05T22:43:21.477Z,81.23
2019-04-05T22:46:10.298Z,80.95
2019-04-05T22:48:59.076Z,80.83
2019-04-05T22:51:47.873Z,79.92
2019-04-05T22:54:36.652Z,81.48
2019-04-05T22:57:25.468Z,81.91
2019-04-05T23:00:14.341Z,80.83
2019-04-05T23:02:56.194Z,80.90
2019-04-05T23:05:44.992Z,80.63
2019-04-05T23:08:33.818Z,80.00
2019-04-05T23:11:22.594Z,80.29
2019-04-05T23:14:11.366Z,80.22
2019-04-05T23:17:00.166Z,79.71
2019-04-05T23:19:48.948Z,79.33
2019-04-05T23:22:37.762Z,79.99
2019-04-05T23:25:26.548Z,79.10
2019-04-05T23:28:15.357Z,79.43
2019-04-05T23:31:04.145Z,79.94
2019-04-05T23:33:52.952Z,80.09
2019-04-05T23:36:41.746Z,79.86
2019-04-05T23:39:30.547Z,79.04
2019-04-05T23:42:19.347Z,78.78
2019-04-05T23:45:08.210Z,78.81
2019-04-05T23:47:57.021Z,79.00
2019-04-05T23:50:45.832Z,78.45
2019-04-05T23:53:34.621Z,78.39
2019-04-05T23:59:18.364Z,78.26
